createdAt,value
2024-04-14T00:00:10.608Z,101577.42
2024-04-14T00:02:41.008Z,101575.18
2024-04-14T00:05:11.360Z,101583.58
2024-04-14T00:07:41.685Z,101582.50
2024-04-14T00:10:12.023Z,101583.63
2024-04-14T00:12:42.472Z,101591.75
2024-04-14T00:15:12.732Z,101589.51
2024-04-14T00:17:43.204Z,101590.66
2024-04-14T00:20:13.451Z,101590.75
2024-04-14T00:22:43.814Z,101589.19
2024-04-14T00:25:14.173Z,101586.39
2024-04-14T00:27:44.596Z,101591.92
2024-04-14T00:30:14.914Z,101590.57
2024-04-14T00:32:45.325Z,101591.63
2024-04-14T00:35:15.622Z,101586.98
2024-04-14T00:37:46.000Z,101587.96
2024-04-14T00:40:16.358Z,101593.95
2024-04-14T00:42:46.803Z,101589.53
2024-04-14T00:45:17.152Z,101591.76
2024-04-14T00:47:47.553Z,101596.48
2024-04-14T00:50:17.844Z,101591.30
2024-04-14T00:52:48.285Z,101592.37
2024-04-14T00:55:18.595Z,101590.89
2024-04-14T00:57:49.087Z,101591.27
2024-04-14T01:00:19.351Z,101597.02
2024-04-14T01:02:49.737Z,101598.83
2024-04-14T01:05:20.156Z,101605.82
2024-04-14T01:07:50.500Z,101605.63
2024-04-14T01:10:20.871Z,101598.53
2024-04-14T01:12:51.356Z,101597.38
2024-04-14T01:15:21.721Z,101604.39
2024-04-14T01:17:52.211Z,101607.83
2024-04-14T01:20:22.503Z,101608.81
2024-04-14T01:22:52.813Z,101610.14
2024-04-14T01:25:23.176Z,101620.42
2024-04-14T01:27:53.730Z,101620.07
2024-04-14T01:30:23.980Z,101626.98
2024-04-14T01:32:54.399Z,101628.56
2024-04-14T01:35:24.754Z,101627.16
2024-04-14T01:38:05.458Z,101630.63
2024-04-14T01:40:25.545Z,101634.90
2024-04-14T01:42:55.745Z,101630.97
2024-04-14T01:45:26.077Z,101639.35
2024-04-14T01:47:56.276Z,101638.05
2024-04-14T01:50:26.597Z,101640.71
2024-04-14T01:52:56.986Z,101640.58
2024-04-14T01:55:27.372Z,101640.02
2024-04-14T01:57:57.851Z,101642.13
2024-04-14T02:00:27.940Z,101645.46
2024-04-14T02:02:58.376Z,101645.84
2024-04-14T02:05:28.598Z,101656.08
2024-04-14T02:07:59.027Z,101661.12
2024-04-14T02:10:29.397Z,101661.98
2024-04-14T02:12:59.880Z,101670.55
2024-04-14T02:15:30.226Z,101674.81
2024-04-14T02:18:00.787Z,101679.64
2024-04-14T02:20:30.992Z,101682.41
2024-04-14T02:23:01.423Z,101688.85
2024-04-14T02:25:31.794Z,101697.41
2024-04-14T02:28:02.240Z,101701.69
2024-04-14T02:30:32.627Z,101699.31
2024-04-14T02:33:03.305Z,101701.03
2024-04-14T02:35:33.439Z,101709.25
2024-04-14T02:38:03.859Z,101704.37
2024-04-14T02:40:34.325Z,101708.50
2024-04-14T02:43:04.751Z,101718.38
2024-04-14T02:45:35.139Z,101713.58
2024-04-14T02:48:05.624Z,101715.26
2024-04-14T02:50:35.990Z,101724.05
2024-04-14T02:53:06.454Z,101733.71
2024-04-14T02:55:36.973Z,101732.70
2024-04-14T02:58:07.385Z,101735.43
2024-04-14T03:00:37.876Z,101735.15
2024-04-14T03:03:08.331Z,101736.70
2024-04-14T03:05:38.843Z,101742.35
2024-04-14T03:08:09.231Z,101747.47
2024-04-14T03:10:39.716Z,101746.32
2024-04-14T03:13:10.229Z,101750.13
2024-04-14T03:15:40.711Z,101754.12
2024-04-14T03:18:11.223Z,101754.77
2024-04-14T03:20:41.674Z,101752.00
2024-04-14T03:23:12.185Z,101764.58
2024-04-14T03:25:42.657Z,101765.35
2024-04-14T03:28:13.270Z,101763.07
2024-04-14T03:30:43.743Z,101766.67
2024-04-14T03:33:14.239Z,101771.68
2024-04-14T03:35:44.758Z,101766.98
2024-04-14T03:38:15.138Z,101767.80
2024-04-14T03:40:45.588Z,101762.73
2024-04-14T03:43:15.800Z,101763.33
2024-04-14T03:45:46.265Z,101767.57
2024-04-14T03:48:16.797Z,101773.20
2024-04-14T03:50:47.151Z,101781.14
2024-04-14T03:53:17.688Z,101778.46
2024-04-14T03:55:48.170Z,101783.85
2024-04-14T03:58:18.568Z,101789.47
2024-04-14T04:00:49.050Z,101791.72
2024-04-14T04:03:19.497Z,101798.59
2024-04-14T04:05:49.938Z,101800.53
2024-04-14T04:08:20.447Z,101794.68
2024-04-14T04:10:50.888Z,101797.48
2024-04-14T04:13:21.387Z,101791.16
2024-04-14T04:15:51.829Z,101795.42
2024-04-14T04:18:22.363Z,101789.93
2024-04-14T04:20:52.744Z,101803.89
2024-04-14T04:23:23.218Z,101806.74
2024-04-14T04:25:53.682Z,101808.56
2024-04-14T04:28:24.173Z,101800.70
2024-04-14T04:30:54.749Z,101797.01
2024-04-14T04:33:25.399Z,101808.12
2024-04-14T04:35:55.599Z,101806.11
2024-04-14T04:38:26.124Z,101807.37
2024-04-14T04:40:56.579Z,101809.12
2024-04-14T04:43:27.077Z,101816.51
2024-04-14T04:45:57.546Z,101814.63
2024-04-14T04:48:28.231Z,101826.81
2024-04-14T04:50:58.519Z,101829.76
2024-04-14T04:53:28.983Z,101836.58
2024-04-14T04:55:59.446Z,101841.46
2024-04-14T04:58:29.977Z,101847.55
2024-04-14T05:01:00.583Z,101842.79
2024-04-14T05:03:32.657Z,101844.70
2024-04-14T05:06:01.474Z,101842.21
2024-04-14T05:08:31.984Z,101840.66
2024-04-14T05:11:02.387Z,101842.86
2024-04-14T05:13:32.896Z,101848.31
2024-04-14T05:16:03.392Z,101849.35
2024-04-14T05:18:33.979Z,101850.92
2024-04-14T05:21:04.334Z,101846.45
2024-04-14T05:23:34.853Z,101853.45
2024-04-14T05:26:05.293Z,101851.61
2024-04-14T05:28:35.852Z,101853.34
2024-04-14T05:31:06.276Z,101866.87
2024-04-14T05:33:36.849Z,101863.12
2024-04-14T05:36:07.211Z,101862.34
2024-04-14T05:38:37.718Z,101867.85
2024-04-14T05:41:08.162Z,101863.20
2024-04-14T05:43:38.679Z,101864.62
2024-04-14T05:46:09.297Z,101867.14
2024-04-14T05:48:39.780Z,101872.70
2024-04-14T05:51:10.106Z,101878.89
2024-04-14T05:53:40.595Z,101884.85
2024-04-14T05:56:11.044Z,101890.60
2024-04-14T05:58:41.554Z,101893.34
2024-04-14T06:01:12.079Z,101886.35
2024-04-14T06:03:42.576Z,101888.36
2024-04-14T06:06:12.993Z,101880.59
2024-04-14T06:08:43.459Z,101886.07
2024-04-14T06:11:13.981Z,101891.61
2024-04-14T06:13:44.436Z,101904.44
2024-04-14T06:16:14.946Z,101900.54
2024-04-14T06:18:45.394Z,101897.04
2024-04-14T06:21:15.862Z,101896.30
2024-04-14T06:23:46.340Z,101900.49
2024-04-14T06:26:16.799Z,101904.99
2024-04-14T06:28:47.327Z,101911.10
2024-04-14T06:31:17.768Z,101914.70
2024-04-14T06:33:48.358Z,101925.79
2024-04-14T06:36:18.463Z,101924.74
2024-04-14T06:38:48.969Z,101915.79
2024-04-14T06:41:19.454Z,101915.93
2024-04-14T06:43:50.001Z,101925.90
2024-04-14T06:46:20.464Z,101929.59
2024-04-14T06:48:50.993Z,101935.21
2024-04-14T06:51:21.460Z,101932.86
2024-04-14T06:53:51.978Z,101939.08
2024-04-14T06:56:22.458Z,101936.33
2024-04-14T06:58:52.984Z,101927.38
2024-04-14T07:01:23.516Z,101927.92
2024-04-14T07:03:54.051Z,101942.62
2024-04-14T07:06:24.520Z,101940.07
2024-04-14T07:08:54.979Z,101937.60
2024-04-14T07:11:25.495Z,101936.05
2024-04-14T07:13:55.992Z,101943.83
2024-04-14T07:16:26.436Z,101946.41
2024-04-14T07:18:57.108Z,101951.19
2024-04-14T07:21:27.537Z,101951.86
2024-04-14T07:23:57.929Z,101943.69
2024-04-14T07:26:28.415Z,101946.25
2024-04-14T07:28:58.967Z,101949.10
2024-04-14T07:31:29.455Z,101960.24
2024-04-14T07:33:59.984Z,101953.70
2024-04-14T07:36:30.642Z,101948.24
2024-04-14T07:39:00.962Z,101950.06
2024-04-14T07:41:31.440Z,101955.96
2024-04-14T07:44:01.980Z,101953.57
2024-04-14T07:46:32.449Z,101947.07
2024-04-14T07:49:03.034Z,101953.39
2024-04-14T07:51:33.524Z,101954.32
2024-04-14T07:54:04.076Z,101946.62
2024-04-14T07:56:34.450Z,101950.39
2024-04-14T07:59:05.034Z,101952.31
2024-04-14T08:01:35.446Z,101964.19
2024-04-14T08:04:06.136Z,101966.38
2024-04-14T08:06:36.433Z,101962.18
2024-04-14T08:09:07.077Z,101959.10
2024-04-14T08:11:37.391Z,101960.35
2024-04-14T08:14:07.925Z,101961.48
2024-04-14T08:16:38.415Z,101955.93
2024-04-14T08:19:08.915Z,101956.14
2024-04-14T08:21:39.374Z,101954.30
2024-04-14T08:24:09.848Z,101962.29
2024-04-14T08:26:40.073Z,101966.04
2024-04-14T08:29:10.582Z,101968.77
2024-04-14T08:31:40.969Z,101968.00
2024-04-14T08:34:11.514Z,101966.71
2024-04-14T08:36:41.941Z,101969.53
2024-04-14T08:39:12.497Z,101967.09
2024-04-14T08:41:43.012Z,101978.34
2024-04-14T08:44:13.454Z,101980.03
2024-04-14T08:46:43.955Z,101982.81
2024-04-14T08:49:14.612Z,101987.63
2024-04-14T08:51:44.849Z,101989.34
2024-04-14T08:54:15.486Z,101989.22
2024-04-14T08:56:45.786Z,101995.36
2024-04-14T08:59:17.488Z,101988.32
2024-04-14T09:01:46.800Z,101997.24
2024-04-14T09:04:17.315Z,101997.14
2024-04-14T09:06:47.696Z,101980.99
2024-04-14T09:09:18.121Z,101987.62
2024-04-14T09:11:48.593Z,101983.92
2024-04-14T09:14:19.089Z,101984.08
2024-04-14T09:16:49.692Z,101984.37
2024-04-14T09:19:20.035Z,101986.41
2024-04-14T09:21:50.533Z,101991.53
2024-04-14T09:24:20.958Z,101993.86
2024-04-14T09:26:51.414Z,101993.80
2024-04-14T09:29:21.892Z,101992.92
2024-04-14T09:31:53.341Z,102000.19
2024-04-14T09:34:22.828Z,102001.72
2024-04-14T09:36:53.253Z,101994.61
2024-04-14T09:39:23.734Z,101987.85
2024-04-14T09:41:54.182Z,101993.60
2024-04-14T09:44:24.644Z,101999.80
2024-04-14T09:46:55.155Z,101998.77
2024-04-14T09:49:25.551Z,101997.38
2024-04-14T09:51:56.012Z,102004.71
2024-04-14T09:54:26.456Z,102001.29
2024-04-14T09:56:56.886Z,102000.59
2024-04-14T09:59:27.358Z,101996.52
2024-04-14T10:01:57.782Z,102002.73
2024-04-14T10:04:28.362Z,101996.13
2024-04-14T10:06:58.698Z,101992.14
2024-04-14T10:09:29.842Z,101992.31
2024-04-14T10:11:59.580Z,101988.81
2024-04-14T10:14:30.044Z,101992.20
2024-04-14T10:17:00.663Z,101998.65
2024-04-14T10:19:30.915Z,101995.83
2024-04-14T10:22:01.494Z,102002.29
2024-04-14T10:24:32.079Z,101995.90
2024-04-14T10:27:02.644Z,101996.76
2024-04-14T10:29:32.951Z,101998.37
2024-04-14T10:32:03.282Z,102000.90
2024-04-14T10:34:33.885Z,101997.45
2024-04-14T10:37:04.224Z,102006.91
2024-04-14T10:39:34.586Z,102010.64
2024-04-14T10:42:04.950Z,102003.19
2024-04-14T10:44:35.379Z,102000.59
2024-04-14T10:47:05.781Z,101995.55
2024-04-14T10:49:36.185Z,101989.14
2024-04-14T10:52:06.613Z,101993.27
2024-04-14T10:54:36.980Z,101991.46
2024-04-14T10:57:07.384Z,101997.38
2024-04-14T10:59:37.775Z,101994.75
2024-04-14T11:02:08.117Z,101997.73
2024-04-14T11:04:38.634Z,101990.66
2024-04-14T11:07:08.931Z,101991.73
2024-04-14T11:09:39.528Z,101990.09
2024-04-14T11:12:09.733Z,101985.48
2024-04-14T11:14:40.173Z,101986.03
2024-04-14T11:17:10.536Z,101986.17
2024-04-14T11:19:41.043Z,101977.72
2024-04-14T11:22:11.425Z,101977.85
2024-04-14T11:24:41.859Z,101967.80
2024-04-14T11:27:12.200Z,101974.04
2024-04-14T11:29:42.706Z,101967.68
2024-04-14T11:32:13.032Z,101963.25
2024-04-14T11:34:43.516Z,101959.06
2024-04-14T11:37:13.851Z,101963.65
2024-04-14T11:39:44.571Z,101956.97
2024-04-14T11:42:14.655Z,101962.05
2024-04-14T11:44:45.096Z,101963.13
2024-04-14T11:47:15.510Z,101960.34
2024-04-14T11:49:45.899Z,101962.00
2024-04-14T11:52:16.306Z,101948.81
2024-04-14T11:54:46.753Z,101953.96
2024-04-14T11:57:17.077Z,101952.88
2024-04-14T11:59:47.509Z,101964.24
2024-04-14T12:02:17.871Z,101952.56
2024-04-14T12:04:51.417Z,101948.46
2024-04-14T12:07:18.650Z,101955.93
2024-04-14T12:09:48.847Z,101950.92
2024-04-14T12:12:19.317Z,101944.81
2024-04-14T12:14:49.607Z,101954.50
2024-04-14T12:17:20.083Z,101951.66
2024-04-14T12:19:50.385Z,101935.41
2024-04-14T12:22:20.727Z,101957.56
2024-04-14T12:24:51.255Z,101955.05
2024-04-14T12:27:21.480Z,101941.51
2024-04-14T12:29:51.891Z,101925.95
2024-04-14T12:32:22.322Z,101943.05
2024-04-14T12:34:52.624Z,101946.04
2024-04-14T12:37:23.026Z,101939.97
2024-04-14T12:39:53.388Z,101937.88
2024-04-14T12:42:23.790Z,101931.52
2024-04-14T12:44:54.165Z,101925.25
2024-04-14T12:47:24.597Z,101928.24
2024-04-14T12:49:54.990Z,101925.30
2024-04-14T12:52:25.230Z,101923.43
2024-04-14T12:54:55.673Z,101917.63
2024-04-14T12:57:25.981Z,101923.79
2024-04-14T12:59:56.597Z,101928.89
2024-04-14T13:02:26.778Z,101914.28
2024-04-14T13:04:57.145Z,101917.21
2024-04-14T13:07:27.481Z,101906.61
2024-04-14T13:09:58.061Z,101910.72
2024-04-14T13:12:28.231Z,101907.99
2024-04-14T13:14:58.791Z,101897.42
2024-04-14T13:17:28.994Z,101897.23
2024-04-14T13:19:59.369Z,101891.46
2024-04-14T13:22:29.730Z,101901.01
2024-04-14T13:25:00.355Z,101896.95
2024-04-14T13:27:30.432Z,101890.29
2024-04-14T13:30:00.829Z,101884.42
2024-04-14T13:32:31.219Z,101883.45
2024-04-14T13:35:01.527Z,101878.89
2024-04-14T13:37:31.843Z,101879.87
2024-04-14T13:40:02.362Z,101867.02
2024-04-14T13:42:32.640Z,101870.39
2024-04-14T13:45:02.967Z,101869.35
2024-04-14T13:47:33.432Z,101870.54
2024-04-14T13:50:03.720Z,101865.68
2024-04-14T13:52:34.067Z,101862.02
2024-04-14T13:55:06.345Z,101867.70
2024-04-14T13:57:34.866Z,101865.44
2024-04-14T14:00:05.236Z,101859.06
2024-04-14T14:02:35.618Z,101853.39
2024-04-14T14:05:06.011Z,101852.00
2024-04-14T14:07:36.415Z,101851.39
2024-04-14T14:10:06.805Z,101842.65
2024-04-14T14:12:37.168Z,101841.53
2024-04-14T14:15:07.643Z,101836.69
2024-04-14T14:17:37.923Z,101839.31
2024-04-14T14:20:08.315Z,101838.21
2024-04-14T14:22:38.737Z,101835.79
2024-04-14T14:25:09.143Z,101827.16
2024-04-14T14:27:39.470Z,101828.67
2024-04-14T14:30:09.853Z,101824.41
2024-04-14T14:32:40.268Z,101841.34
2024-04-14T14:35:10.604Z,101833.44
2024-04-14T14:37:41.052Z,101827.44
2024-04-14T14:40:11.400Z,101833.17
2024-04-14T14:42:41.707Z,101835.85
2024-04-14T14:45:12.091Z,101825.34
2024-04-14T14:47:42.541Z,101822.70
2024-04-14T14:50:12.854Z,101822.36
2024-04-14T14:52:43.211Z,101824.48
2024-04-14T14:55:13.668Z,101831.30
2024-04-14T14:57:44.002Z,101824.83
2024-04-14T15:00:14.464Z,101822.27
2024-04-14T15:02:44.815Z,101831.16
2024-04-14T15:05:15.273Z,101833.56
2024-04-14T15:07:45.541Z,101825.48
2024-04-14T15:10:15.961Z,101828.63
2024-04-14T15:12:46.361Z,101820.70
2024-04-14T15:15:16.718Z,101822.27
2024-04-14T15:17:47.083Z,101822.32
2024-04-14T15:20:17.498Z,101818.83
2024-04-14T15:22:47.872Z,101817.78
2024-04-14T15:25:18.276Z,101812.68
2024-04-14T15:27:48.669Z,101818.36
2024-04-14T15:30:19.112Z,101808.97
2024-04-14T15:32:49.493Z,101804.93
2024-04-14T15:35:19.810Z,101812.47
2024-04-14T15:37:50.154Z,101805.36
2024-04-14T15:40:20.310Z,101805.94
2024-04-14T15:42:50.680Z,101800.00
2024-04-14T15:45:21.048Z,101794.01
2024-04-14T15:47:51.522Z,101797.61
2024-04-14T15:50:21.805Z,101800.53
2024-04-14T15:52:52.189Z,101794.25
2024-04-14T15:55:22.603Z,101791.22
2024-04-14T15:57:56.064Z,101793.69
2024-04-14T16:00:23.338Z,101799.72
2024-04-14T16:02:53.711Z,101786.72
2024-04-14T16:05:24.089Z,101786.69
2024-04-14T16:07:54.443Z,101782.03
2024-04-14T16:10:24.893Z,101779.09
2024-04-14T16:12:55.304Z,101769.45
2024-04-14T16:15:25.645Z,101774.39
2024-04-14T16:17:56.143Z,101777.04
2024-04-14T16:20:26.421Z,101784.90
2024-04-14T16:22:56.817Z,101784.06
2024-04-14T16:25:27.327Z,101780.27
2024-04-14T16:27:57.666Z,101776.27
2024-04-14T16:30:28.074Z,101770.22
2024-04-14T16:32:58.595Z,101771.27
2024-04-14T16:35:28.946Z,101772.80
2024-04-14T16:37:59.355Z,101775.30
2024-04-14T16:40:29.804Z,101779.74
2024-04-14T16:43:00.349Z,101776.39
2024-04-14T16:45:30.709Z,101767.50
2024-04-14T16:48:01.304Z,101768.67
2024-04-14T16:50:31.562Z,101769.39
2024-04-14T16:53:02.112Z,101765.33
2024-04-14T16:55:32.591Z,101764.70
2024-04-14T16:58:02.921Z,101767.02
2024-04-14T17:00:33.437Z,101761.54
2024-04-14T17:03:03.917Z,101756.39
2024-04-14T17:05:34.296Z,101759.12
2024-04-14T17:08:04.646Z,101757.06
2024-04-14T17:10:35.089Z,101753.08
2024-04-14T17:13:05.554Z,101751.15
2024-04-14T17:15:36.119Z,101747.97
2024-04-14T17:18:06.482Z,101739.33
2024-04-14T17:20:36.926Z,101736.83
2024-04-14T17:23:07.303Z,101735.50
2024-04-14T17:25:37.843Z,101734.25
2024-04-14T17:28:08.416Z,101732.45
2024-04-14T17:30:38.929Z,101726.38
2024-04-14T17:33:09.322Z,101729.73
2024-04-14T17:35:39.844Z,101731.56
2024-04-14T17:38:10.382Z,101729.13
2024-04-14T17:40:40.824Z,101721.76
2024-04-14T17:43:11.405Z,101720.56
2024-04-14T17:45:41.993Z,101716.30
2024-04-14T17:48:12.304Z,101711.10
2024-04-14T17:50:42.780Z,101713.05
2024-04-14T17:53:13.265Z,101707.97
2024-04-14T17:55:43.740Z,101706.50
2024-04-14T17:58:14.259Z,101703.96
2024-04-14T18:00:44.826Z,101701.71
2024-04-14T18:03:15.222Z,101694.70
2024-04-14T18:05:45.668Z,101691.38
2024-04-14T18:08:16.143Z,101688.02
2024-04-14T18:10:46.740Z,101683.72
2024-04-14T18:13:17.119Z,101677.77
2024-04-14T18:15:47.729Z,101674.57
2024-04-14T18:18:18.120Z,101674.10
2024-04-14T18:20:48.602Z,101674.88
2024-04-14T18:23:19.066Z,101678.86
2024-04-14T18:25:49.600Z,101677.41
2024-04-14T18:28:20.078Z,101676.72
2024-04-14T18:30:50.729Z,101680.90
2024-04-14T18:33:21.137Z,101679.45
2024-04-14T18:35:51.740Z,101675.02
2024-04-14T18:38:22.199Z,101670.56
2024-04-14T18:40:52.714Z,101673.12
2024-04-14T18:43:23.236Z,101666.78
2024-04-14T18:45:53.888Z,101666.31
2024-04-14T18:48:24.288Z,101668.01
2024-04-14T18:50:54.798Z,101670.52
2024-04-14T18:53:25.282Z,101672.22
2024-04-14T18:55:55.924Z,101669.98
2024-04-14T18:58:27.804Z,101670.32
2024-04-14T19:00:56.968Z,101670.50
2024-04-14T19:03:27.363Z,101669.82
2024-04-14T19:05:57.881Z,101669.45
2024-04-14T19:08:28.365Z,101664.26
2024-04-14T19:10:59.017Z,101664.48
2024-04-14T19:13:29.393Z,101665.54
2024-04-14T19:15:59.992Z,101662.74
2024-04-14T19:18:30.696Z,101664.14
2024-04-14T19:21:00.989Z,101655.66
2024-04-14T19:23:31.496Z,101650.79
2024-04-14T19:26:02.124Z,101646.58
2024-04-14T19:28:32.645Z,101638.71
2024-04-14T19:31:03.158Z,101628.10
2024-04-14T19:33:33.595Z,101623.19
2024-04-14T19:36:04.131Z,101617.39
2024-04-14T19:38:34.634Z,101617.34
2024-04-14T19:41:07.175Z,101610.24
2024-04-14T19:43:35.646Z,101611.59
2024-04-14T19:46:06.275Z,101608.86
2024-04-14T19:48:36.758Z,101603.97
2024-04-14T19:51:07.212Z,101604.42
2024-04-14T19:53:37.755Z,101603.38
2024-04-14T19:56:08.370Z,101598.42
2024-04-14T19:58:38.798Z,101594.19
2024-04-14T20:01:09.924Z,101585.96
2024-04-14T20:03:39.916Z,101587.19
2024-04-14T20:06:10.350Z,101582.82
2024-04-14T20:08:40.873Z,101574.83
2024-04-14T20:11:11.419Z,101572.23
2024-04-14T20:13:41.903Z,101567.86
2024-04-14T20:16:12.542Z,101561.20
2024-04-14T20:18:43.132Z,101555.62
2024-04-14T20:21:13.527Z,101556.85
2024-04-14T20:23:44.004Z,101559.77
2024-04-14T20:26:14.730Z,101555.91
2024-04-14T20:28:45.059Z,101551.05
2024-04-14T20:31:15.663Z,101551.39
2024-04-14T20:33:46.191Z,101550.68
2024-04-14T20:36:16.657Z,101551.93
2024-04-14T20:38:47.162Z,101551.96
2024-04-14T20:41:17.703Z,101545.82
2024-04-14T20:43:48.292Z,101543.68
2024-04-14T20:46:18.791Z,101540.56
2024-04-14T20:48:49.419Z,101537.81
2024-04-14T20:51:19.812Z,101534.01
2024-04-14T20:53:50.337Z,101528.21
2024-04-14T20:56:20.900Z,101521.33
2024-04-14T20:58:51.412Z,101521.31
2024-04-14T21:01:22.149Z,101522.33
2024-04-14T21:03:52.592Z,101516.39
2024-04-14T21:06:23.029Z,101511.79
2024-04-14T21:08:53.552Z,101504.64
2024-04-14T21:11:24.127Z,101502.32
2024-04-14T21:13:54.635Z,101498.58
2024-04-14T21:16:25.192Z,101492.74
2024-04-14T21:18:55.773Z,101490.50
2024-04-14T21:21:26.376Z,101485.69
2024-04-14T21:23:56.833Z,101483.03
2024-04-14T21:26:27.411Z,101480.79
2024-04-14T21:28:58.067Z,101473.71
2024-04-14T21:31:28.548Z,101470.46
2024-04-14T21:33:59.229Z,101468.95
2024-04-14T21:36:29.614Z,101457.96
2024-04-14T21:39:00.172Z,101452.22
2024-04-14T21:41:30.714Z,101446.44
2024-04-14T21:44:01.263Z,101443.40
2024-04-14T21:46:31.878Z,101427.55
2024-04-14T21:49:02.512Z,101442.20
2024-04-14T21:51:33.018Z,101443.62
2024-04-14T21:54:03.572Z,101427.68
2024-04-14T21:56:34.274Z,101424.71
2024-04-14T21:59:04.675Z,101430.01
2024-04-14T22:01:35.365Z,101431.90
2024-04-14T22:04:15.709Z,101425.77
2024-04-14T22:06:36.383Z,101421.26
2024-04-14T22:09:06.942Z,101414.07
2024-04-14T22:11:37.535Z,101410.23
2024-04-14T22:14:08.030Z,101400.64
2024-04-14T22:16:38.658Z,101399.09
2024-04-14T22:19:09.300Z,101389.45
2024-04-14T22:21:39.822Z,101383.59
2024-04-14T22:24:10.326Z,101383.83
2024-04-14T22:26:40.810Z,101378.83
2024-04-14T22:29:11.363Z,101381.40
2024-04-14T22:31:42.095Z,101374.02
2024-04-14T22:34:12.530Z,101364.77
2024-04-14T22:36:43.173Z,101358.07
2024-04-14T22:39:13.598Z,101353.51
2024-04-14T22:41:44.177Z,101355.92
2024-04-14T22:44:14.696Z,101358.22
2024-04-14T22:46:45.318Z,101357.41
2024-04-14T22:49:15.855Z,101356.77
2024-04-14T22:51:46.437Z,101353.33
2024-04-14T22:54:16.907Z,101347.69
2024-04-14T22:56:47.507Z,101346.30
2024-04-14T22:59:18.028Z,101353.70
2024-04-14T23:01:48.703Z,101354.85
2024-04-14T23:04:19.324Z,101350.19
2024-04-14T23:06:49.737Z,101342.04
2024-04-14T23:09:20.259Z,101339.51
2024-04-14T23:11:50.823Z,101344.44
2024-04-14T23:14:21.395Z,101346.13
2024-04-14T23:16:51.971Z,101349.40
2024-04-14T23:19:22.592Z,101349.13
2024-04-14T23:21:53.217Z,101346.21
2024-04-14T23:24:23.667Z,101346.90
2024-04-14T23:26:54.245Z,101364.41
2024-04-14T23:29:24.825Z,101384.34
2024-04-14T23:31:55.418Z,101365.77
2024-04-14T23:34:25.951Z,101354.88
2024-04-14T23:36:56.665Z,101345.82
2024-04-14T23:39:27.109Z,101337.93
2024-04-14T23:41:57.334Z,101346.14
2024-04-14T23:44:27.860Z,101338.68
2024-04-14T23:46:58.483Z,101314.08
2024-04-14T23:49:29.000Z,101322.93
2024-04-14T23:51:59.633Z,101318.28
2024-04-14T23:54:30.159Z,101317.70
2024-04-14T23:57:00.754Z,101318.10
2024-04-14T23:59:31.302Z,101312.73
